sensor_id;sensor_type;location;lat;lon;timestamp;pressure;altitude;pressure_sealevel;temperature;humidity
19811;BME280;10065;49.632;8.346;2022-11-18T00:02:14;98760.47;;;11.61;98.27
19811;BME280;10065;49.632;8.346;2022-11-18T00:04:42;98756.03;;;11.68;98.05
19811;BME280;10065;49.632;8.346;2022-11-18T00:07:09;98749.06;;;11.67;97.20
19811;BME280;10065;49.632;8.346;2022-11-18T00:09:39;98744.59;;;11.68;97.02
19811;BME280;10065;49.632;8.346;2022-11-18T00:12:06;98744.34;;;11.63;97.08
19811;BME280;10065;49.632;8.346;2022-11-18T00:14:53;98740.88;;;11.62;97.59
19811;BME280;10065;49.632;8.346;2022-11-18T00:17:20;98751.47;;;11.62;97.02
19811;BME280;10065;49.632;8.346;2022-11-18T00:19:48;98754.75;;;11.58;97.63
19811;BME280;10065;49.632;8.346;2022-11-18T00:22:16;98753.91;;;11.57;97.71
19811;BME280;10065;49.632;8.346;2022-11-18T00:24:45;98753.09;;;11.57;97.97
19811;BME280;10065;49.632;8.346;2022-11-18T00:27:13;98745.75;;;11.59;97.62
19811;BME280;10065;49.632;8.346;2022-11-18T00:29:40;98746.34;;;11.54;97.23
19811;BME280;10065;49.632;8.346;2022-11-18T00:32:08;98740.41;;;11.52;97.96
19811;BME280;10065;49.632;8.346;2022-11-18T00:34:36;98754.28;;;11.54;97.70
19811;BME280;10065;49.632;8.346;2022-11-18T00:37:04;98756.31;;;11.52;97.66
19811;BME280;10065;49.632;8.346;2022-11-18T00:39:31;98754.94;;;11.56;96.74
19811;BME280;10065;49.632;8.346;2022-11-18T00:42:01;98749.00;;;11.54;96.64
19811;BME280;10065;49.632;8.346;2022-11-18T00:44:46;98755.16;;;11.61;95.99
19811;BME280;10065;49.632;8.346;2022-11-18T00:47:13;98749.84;;;11.61;95.77
19811;BME280;10065;49.632;8.346;2022-11-18T00:49:41;98745.34;;;11.62;95.64
19811;BME280;10065;49.632;8.346;2022-11-18T00:52:09;98747.19;;;11.61;95.67
19811;BME280;10065;49.632;8.346;2022-11-18T00:54:36;98741.47;;;11.58;95.64
19811;BME280;10065;49.632;8.346;2022-11-18T00:57:05;98738.56;;;11.53;96.30
19811;BME280;10065;49.632;8.346;2022-11-18T00:59:33;98734.28;;;11.52;96.82
19811;BME280;10065;49.632;8.346;2022-11-18T01:02:01;98735.31;;;11.51;96.42
19811;BME280;10065;49.632;8.346;2022-11-18T01:04:29;98743.47;;;11.49;97.00
19811;BME280;10065;49.632;8.346;2022-11-18T01:06:57;98751.41;;;11.49;96.64
19811;BME280;10065;49.632;8.346;2022-11-18T01:09:24;98751.81;;;11.46;96.60
19811;BME280;10065;49.632;8.346;2022-11-18T01:11:52;98748.50;;;11.44;96.64
19811;BME280;10065;49.632;8.346;2022-11-18T01:14:39;98760.59;;;11.47;96.88
19811;BME280;10065;49.632;8.346;2022-11-18T01:17:06;98769.75;;;11.44;96.81
19811;BME280;10065;49.632;8.346;2022-11-18T01:19:34;98770.16;;;11.41;97.66
19811;BME280;10065;49.632;8.346;2022-11-18T01:22:02;98771.16;;;11.40;98.16
19811;BME280;10065;49.632;8.346;2022-11-18T01:24:30;98768.94;;;11.44;97.69
19811;BME280;10065;49.632;8.346;2022-11-18T01:26:59;98771.38;;;11.45;97.19
19811;BME280;10065;49.632;8.346;2022-11-18T01:29:28;98779.34;;;11.45;96.40
19811;BME280;10065;49.632;8.346;2022-11-18T01:31:57;98788.09;;;11.39;96.95
19811;BME280;10065;49.632;8.346;2022-11-18T01:34:45;98786.47;;;11.38;97.31
19811;BME280;10065;49.632;8.346;2022-11-18T01:37:12;98786.72;;;11.43;97.02
19811;BME280;10065;49.632;8.346;2022-11-18T01:39:40;98792.81;;;11.44;97.03
19811;BME280;10065;49.632;8.346;2022-11-18T01:42:12;98799.75;;;11.45;96.66
19811;BME280;10065;49.632;8.346;2022-11-18T01:44:58;98801.59;;;11.44;96.68
19811;BME280;10065;49.632;8.346;2022-11-18T01:47:31;98790.56;;;11.41;96.77
19811;BME280;10065;49.632;8.346;2022-11-18T01:50:00;98785.94;;;11.49;96.16
19811;BME280;10065;49.632;8.346;2022-11-18T01:52:28;98791.63;;;11.46;95.39
19811;BME280;10065;49.632;8.346;2022-11-18T01:54:59;98797.44;;;11.35;95.64
19811;BME280;10065;49.632;8.346;2022-11-18T01:57:30;98789.44;;;11.28;96.19
19811;BME280;10065;49.632;8.346;2022-11-18T02:00:00;98796.59;;;11.28;96.67
19811;BME280;10065;49.632;8.346;2022-11-18T02:02:33;98798.41;;;11.27;96.71
19811;BME280;10065;49.632;8.346;2022-11-18T02:05:05;98799.25;;;11.28;96.92
19811;BME280;10065;49.632;8.346;2022-11-18T02:07:34;98792.50;;;11.25;96.60
19811;BME280;10065;49.632;8.346;2022-11-18T02:10:04;98803.53;;;11.29;96.88
19811;BME280;10065;49.632;8.346;2022-11-18T02:12:33;98798.69;;;11.32;97.01
19811;BME280;10065;49.632;8.346;2022-11-18T02:15:02;98808.94;;;11.42;96.41
19811;BME280;10065;49.632;8.346;2022-11-18T02:17:41;98809.97;;;11.41;95.92
19811;BME280;10065;49.632;8.346;2022-11-18T02:20:23;98809.69;;;11.36;96.04
19811;BME280;10065;49.632;8.346;2022-11-18T02:23:31;98810.53;;;11.37;96.04
19811;BME280;10065;49.632;8.346;2022-11-18T02:26:33;98813.84;;;11.45;95.94
19811;BME280;10065;49.632;8.346;2022-11-18T02:29:09;98817.16;;;11.47;95.28
19811;BME280;10065;49.632;8.346;2022-11-18T02:31:47;98818.03;;;11.61;95.00
19811;BME280;10065;49.632;8.346;2022-11-18T02:34:27;98809.88;;;11.62;93.51
19811;BME280;10065;49.632;8.346;2022-11-18T02:37:04;98817.91;;;11.69;93.99
19811;BME280;10065;49.632;8.346;2022-11-18T02:39:38;98807.03;;;11.64;94.17
19811;BME280;10065;49.632;8.346;2022-11-18T02:42:11;98812.78;;;11.67;94.79
19811;BME280;10065;49.632;8.346;2022-11-18T02:44:46;98816.97;;;11.77;93.90
19811;BME280;10065;49.632;8.346;2022-11-18T02:47:17;98819.84;;;11.82;93.57
19811;BME280;10065;49.632;8.346;2022-11-18T02:49:51;98819.03;;;11.81;92.43
19811;BME280;10065;49.632;8.346;2022-11-18T02:52:21;98824.16;;;11.89;92.33
19811;BME280;10065;49.632;8.346;2022-11-18T02:54:51;98819.47;;;11.85;92.19
19811;BME280;10065;49.632;8.346;2022-11-18T02:57:20;98822.34;;;11.90;92.24
19811;BME280;10065;49.632;8.346;2022-11-18T02:59:50;98818.63;;;11.84;92.00
19811;BME280;10065;49.632;8.346;2022-11-18T03:02:19;98817.31;;;11.74;92.02
19811;BME280;10065;49.632;8.346;2022-11-18T03:04:48;98823.78;;;11.64;92.89
19811;BME280;10065;49.632;8.346;2022-11-18T03:07:22;98825.81;;;11.62;93.21
19811;BME280;10065;49.632;8.346;2022-11-18T03:09:53;98831.94;;;11.63;93.59
19811;BME280;10065;49.632;8.346;2022-11-18T03:12:30;98840.34;;;11.66;93.78
19811;BME280;10065;49.632;8.346;2022-11-18T03:15:07;98835.25;;;11.72;93.85
19811;BME280;10065;49.632;8.346;2022-11-18T03:17:43;98841.22;;;11.74;93.55
19811;BME280;10065;49.632;8.346;2022-11-18T03:20:18;98845.88;;;11.72;93.58
19811;BME280;10065;49.632;8.346;2022-11-18T03:22:52;98847.53;;;11.73;93.94
19811;BME280;10065;49.632;8.346;2022-11-18T03:25:27;98849.66;;;11.77;93.44
19811;BME280;10065;49.632;8.346;2022-11-18T03:28:02;98851.31;;;11.85;93.35
19811;BME280;10065;49.632;8.346;2022-11-18T03:30:36;98858.69;;;11.89;92.54
19811;BME280;10065;49.632;8.346;2022-11-18T03:33:09;98853.38;;;11.89;91.76
19811;BME280;10065;49.632;8.346;2022-11-18T03:35:41;98864.78;;;11.83;92.25
19811;BME280;10065;49.632;8.346;2022-11-18T03:38:12;98868.91;;;11.86;92.61
19811;BME280;10065;49.632;8.346;2022-11-18T03:40:46;98874.06;;;11.94;92.23
19811;BME280;10065;49.632;8.346;2022-11-18T03:43:17;98883.50;;;12.03;91.47
19811;BME280;10065;49.632;8.346;2022-11-18T03:45:51;98869.81;;;12.06;91.26
19811;BME280;10065;49.632;8.346;2022-11-18T03:48:23;98872.28;;;12.07;91.22
19811;BME280;10065;49.632;8.346;2022-11-18T03:50:56;98887.03;;;12.10;91.07
19811;BME280;10065;49.632;8.346;2022-11-18T03:53:29;98878.41;;;12.08;90.76
19811;BME280;10065;49.632;8.346;2022-11-18T03:56:03;98888.63;;;12.04;90.31
19811;BME280;10065;49.632;8.346;2022-11-18T03:58:42;98888.19;;;12.01;90.67
19811;BME280;10065;49.632;8.346;2022-11-18T04:01:15;98884.13;;;12.05;90.64
19811;BME280;10065;49.632;8.346;2022-11-18T04:03:45;98885.97;;;12.04;90.53
19811;BME280;10065;49.632;8.346;2022-11-18T04:06:19;98891.00;;;11.93;90.87
19811;BME280;10065;49.632;8.346;2022-11-18T04:08:54;98896.47;;;11.85;91.64
19811;BME280;10065;49.632;8.346;2022-11-18T04:11:26;98899.13;;;11.85;91.99
19811;BME280;10065;49.632;8.346;2022-11-18T04:14:17;98898.97;;;11.93;92.08
19811;BME280;10065;49.632;8.346;2022-11-18T04:16:50;98905.69;;;11.89;92.08
19811;BME280;10065;49.632;8.346;2022-11-18T04:19:18;98901.19;;;11.89;92.63
19811;BME280;10065;49.632;8.346;2022-11-18T04:21:47;98907.16;;;11.98;92.32
19811;BME280;10065;49.632;8.346;2022-11-18T04:24:15;98900.47;;;12.02;91.30
19811;BME280;10065;49.632;8.346;2022-11-18T04:26:43;98908.41;;;11.95;91.71
19811;BME280;10065;49.632;8.346;2022-11-18T04:29:10;98909.75;;;11.85;92.17
19811;BME280;10065;49.632;8.346;2022-11-18T04:31:38;98914.19;;;11.78;93.08
19811;BME280;10065;49.632;8.346;2022-11-18T04:34:07;98917.88;;;11.77;93.66
19811;BME280;10065;49.632;8.346;2022-11-18T04:36:35;98922.78;;;11.80;93.64
19811;BME280;10065;49.632;8.346;2022-11-18T04:39:03;98923.03;;;11.85;93.06
19811;BME280;10065;49.632;8.346;2022-11-18T04:41:30;98915.91;;;11.92;92.29
19811;BME280;10065;49.632;8.346;2022-11-18T04:44:16;98919.69;;;12.04;91.69
19811;BME280;10065;49.632;8.346;2022-11-18T04:46:44;98918.44;;;12.00;91.18
19811;BME280;10065;49.632;8.346;2022-11-18T04:49:14;98919.25;;;12.00;91.45
19811;BME280;10065;49.632;8.346;2022-11-18T04:51:44;98925.34;;;11.94;91.01
19811;BME280;10065;49.632;8.346;2022-11-18T04:54:12;98928.56;;;11.90;91.55
19811;BME280;10065;49.632;8.346;2022-11-18T04:56:40;98939.81;;;11.92;91.79
19811;BME280;10065;49.632;8.346;2022-11-18T04:59:17;98930.47;;;11.96;91.84
19811;BME280;10065;49.632;8.346;2022-11-18T05:01:46;98933.25;;;11.88;91.88
19811;BME280;10065;49.632;8.346;2022-11-18T05:04:18;98934.50;;;11.92;92.17
19811;BME280;10065;49.632;8.346;2022-11-18T05:06:47;98949.66;;;11.98;91.05
19811;BME280;10065;49.632;8.346;2022-11-18T05:09:14;98939.69;;;12.00;90.40
19811;BME280;10065;49.632;8.346;2022-11-18T05:11:43;98948.66;;;11.99;90.02
19811;BME280;10065;49.632;8.346;2022-11-18T05:14:28;98961.97;;;12.05;89.15
19811;BME280;10065;49.632;8.346;2022-11-18T05:16:58;98952.81;;;12.08;88.41
19811;BME280;10065;49.632;8.346;2022-11-18T05:19:27;98946.28;;;12.11;88.10
19811;BME280;10065;49.632;8.346;2022-11-18T05:21:56;98954.06;;;12.12;88.16
19811;BME280;10065;49.632;8.346;2022-11-18T05:24:24;98949.97;;;12.10;88.33
19811;BME280;10065;49.632;8.346;2022-11-18T05:26:52;98954.91;;;12.13;88.00
19811;BME280;10065;49.632;8.346;2022-11-18T05:29:21;98957.75;;;12.11;88.03
19811;BME280;10065;49.632;8.346;2022-11-18T05:31:49;98964.25;;;12.09;87.27
19811;BME280;10065;49.632;8.346;2022-11-18T05:34:17;98969.13;;;12.05;87.33
19811;BME280;10065;49.632;8.346;2022-11-18T05:36:46;98974.25;;;12.06;87.31
19811;BME280;10065;49.632;8.346;2022-11-18T05:39:14;98969.53;;;12.02;87.70
19811;BME280;10065;49.632;8.346;2022-11-18T05:41:42;98974.03;;;12.01;87.61
19811;BME280;10065;49.632;8.346;2022-11-18T05:44:28;98978.13;;;12.04;87.29
19811;BME280;10065;49.632;8.346;2022-11-18T05:46:56;98978.31;;;12.02;86.95
19811;BME280;10065;49.632;8.346;2022-11-18T05:49:24;98981.16;;;12.01;86.57
19811;BME280;10065;49.632;8.346;2022-11-18T05:51:53;98994.06;;;12.04;86.08
19811;BME280;10065;49.632;8.346;2022-11-18T05:54:20;98985.47;;;12.02;86.02
19811;BME280;10065;49.632;8.346;2022-11-18T05:56:49;98994.06;;;12.04;85.58
19811;BME280;10065;49.632;8.346;2022-11-18T05:59:17;98993.44;;;12.02;85.25
19811;BME280;10065;49.632;8.346;2022-11-18T06:01:47;98996.28;;;12.00;84.70
19811;BME280;10065;49.632;8.346;2022-11-18T06:04:19;98993.97;;;11.91;84.56
19811;BME280;10065;49.632;8.346;2022-11-18T06:06:49;99002.69;;;11.85;84.50
19811;BME280;10065;49.632;8.346;2022-11-18T06:09:23;99007.75;;;11.80;84.54
19811;BME280;10065;49.632;8.346;2022-11-18T06:11:55;99004.09;;;11.81;85.41
19811;BME280;10065;49.632;8.346;2022-11-18T06:14:28;99017.13;;;11.76;85.42
19811;BME280;10065;49.632;8.346;2022-11-18T06:17:02;99021.53;;;11.68;86.17
19811;BME280;10065;49.632;8.346;2022-11-18T06:19:32;99034.53;;;11.63;86.18
19811;BME280;10065;49.632;8.346;2022-11-18T06:22:00;99034.34;;;11.65;86.60
19811;BME280;10065;49.632;8.346;2022-11-18T06:24:30;99042.31;;;11.65;86.17
19811;BME280;10065;49.632;8.346;2022-11-18T06:26:58;99045.78;;;11.65;85.75
19811;BME280;10065;49.632;8.346;2022-11-18T06:29:26;99045.78;;;11.65;86.29
19811;BME280;10065;49.632;8.346;2022-11-18T06:31:55;99047.44;;;11.66;85.65
19811;BME280;10065;49.632;8.346;2022-11-18T06:34:23;99050.47;;;11.63;85.23
19811;BME280;10065;49.632;8.346;2022-11-18T06:36:50;99055.59;;;11.65;84.95
19811;BME280;10065;49.632;8.346;2022-11-18T06:39:18;99061.34;;;11.68;85.21
19811;BME280;10065;49.632;8.346;2022-11-18T06:41:47;99062.19;;;11.69;85.06
19811;BME280;10065;49.632;8.346;2022-11-18T06:44:15;99070.16;;;11.69;84.16
19811;BME280;10065;49.632;8.346;2022-11-18T06:46:42;99066.41;;;11.63;84.83
19811;BME280;10065;49.632;8.346;2022-11-18T06:49:26;99070.56;;;11.73;84.75
19811;BME280;10065;49.632;8.346;2022-11-18T06:51:54;99070.97;;;11.69;84.65
19811;BME280;10065;49.632;8.346;2022-11-18T06:54:21;99081.78;;;11.68;83.71
19811;BME280;10065;49.632;8.346;2022-11-18T06:56:51;99088.03;;;11.60;84.57
19811;BME280;10065;49.632;8.346;2022-11-18T06:59:18;99085.81;;;11.64;84.80
19811;BME280;10065;49.632;8.346;2022-11-18T07:01:50;99091.75;;;11.66;84.17
19811;BME280;10065;49.632;8.346;2022-11-18T07:04:19;99094.41;;;11.66;83.94
19811;BME280;10065;49.632;8.346;2022-11-18T07:06:47;99100.66;;;11.58;84.45
19811;BME280;10065;49.632;8.346;2022-11-18T07:09:15;99101.38;;;11.52;84.07
19811;BME280;10065;49.632;8.346;2022-11-18T07:11:43;99105.44;;;11.48;84.06
19811;BME280;10065;49.632;8.346;2022-11-18T07:14:12;99113.78;;;11.45;84.45
19811;BME280;10065;49.632;8.346;2022-11-18T07:16:40;99119.72;;;11.47;84.57
19811;BME280;10065;49.632;8.346;2022-11-18T07:19:09;99126.31;;;11.51;84.87
19811;BME280;10065;49.632;8.346;2022-11-18T07:21:38;99132.53;;;11.58;84.61
19811;BME280;10065;49.632;8.346;2022-11-18T07:24:07;99136.06;;;11.65;83.92
19811;BME280;10065;49.632;8.346;2022-11-18T07:26:35;99136.31;;;11.70;83.54
19811;BME280;10065;49.632;8.346;2022-11-18T07:29:03;99145.03;;;11.79;83.30
19811;BME280;10065;49.632;8.346;2022-11-18T07:31:32;99151.16;;;11.80;82.85
19811;BME280;10065;49.632;8.346;2022-11-18T07:34:02;99150.31;;;11.79;83.18
19811;BME280;10065;49.632;8.346;2022-11-18T07:36:30;99153.19;;;11.78;83.23
19811;BME280;10065;49.632;8.346;2022-11-18T07:39:03;99153.19;;;11.78;83.29
19811;BME280;10065;49.632;8.346;2022-11-18T07:41:31;99156.03;;;11.76;82.85
19811;BME280;10065;49.632;8.346;2022-11-18T07:44:02;99162.50;;;11.74;83.14
19811;BME280;10065;49.632;8.346;2022-11-18T07:46:33;99166.66;;;11.76;83.44
19811;BME280;10065;49.632;8.346;2022-11-18T07:49:02;99170.56;;;11.80;83.50
19811;BME280;10065;49.632;8.346;2022-11-18T07:51:32;99177.94;;;11.78;82.83
19811;BME280;10065;49.632;8.346;2022-11-18T07:54:03;99195.69;;;11.78;82.85
19811;BME280;10065;49.632;8.346;2022-11-18T07:56:32;99183.41;;;11.77;82.81
19811;BME280;10065;49.632;8.346;2022-11-18T07:58:59;99194.38;;;11.74;83.12
19811;BME280;10065;49.632;8.346;2022-11-18T08:01:27;99190.81;;;11.81;83.32
19811;BME280;10065;49.632;8.346;2022-11-18T08:04:03;99195.00;;;11.90;83.06
19811;BME280;10065;49.632;8.346;2022-11-18T08:06:32;99194.75;;;11.85;83.69
19811;BME280;10065;49.632;8.346;2022-11-18T08:09:00;99206.31;;;11.78;84.25
19811;BME280;10065;49.632;8.346;2022-11-18T08:11:31;99210.41;;;11.65;84.76
19811;BME280;10065;49.632;8.346;2022-11-18T08:13:58;99211.63;;;11.48;85.93
19811;BME280;10065;49.632;8.346;2022-11-18T08:16:26;99220.31;;;11.42;86.96
19811;BME280;10065;49.632;8.346;2022-11-18T08:18:54;99222.97;;;11.42;87.46
19811;BME280;10065;49.632;8.346;2022-11-18T08:21:23;99224.50;;;11.37;87.70
19811;BME280;10065;49.632;8.346;2022-11-18T08:23:53;99220.03;;;11.37;88.00
19811;BME280;10065;49.632;8.346;2022-11-18T08:26:21;99222.88;;;11.36;86.69
19811;BME280;10065;49.632;8.346;2022-11-18T08:28:50;99230.84;;;11.36;86.84
19811;BME280;10065;49.632;8.346;2022-11-18T08:31:19;99231.75;;;11.28;87.50
19811;BME280;10065;49.632;8.346;2022-11-18T08:33:48;99231.91;;;11.26;87.47
19811;BME280;10065;49.632;8.346;2022-11-18T08:36:17;99232.47;;;11.22;87.56
19811;BME280;10065;49.632;8.346;2022-11-18T08:38:47;99234.22;;;11.15;88.15
19811;BME280;10065;49.632;8.346;2022-11-18T08:41:16;99234.94;;;11.09;88.60
19811;BME280;10065;49.632;8.346;2022-11-18T08:43:45;99247.66;;;11.13;88.65
19811;BME280;10065;49.632;8.346;2022-11-18T08:46:13;99242.44;;;11.20;88.22
19811;BME280;10065;49.632;8.346;2022-11-18T08:48:41;99240.44;;;11.22;87.91
19811;BME280;10065;49.632;8.346;2022-11-18T08:51:09;99242.75;;;11.25;87.26
19811;BME280;10065;49.632;8.346;2022-11-18T08:53:38;99249.59;;;11.19;87.65
19811;BME280;10065;49.632;8.346;2022-11-18T08:56:13;99254.63;;;11.29;87.04
19811;BME280;10065;49.632;8.346;2022-11-18T08:58:41;99250.41;;;11.35;87.13
19811;BME280;10065;49.632;8.346;2022-11-18T09:01:10;99256.38;;;11.37;87.27
19811;BME280;10065;49.632;8.346;2022-11-18T09:03:38;99255.19;;;11.39;87.25
19811;BME280;10065;49.632;8.346;2022-11-18T09:06:06;99259.31;;;11.42;87.95
19811;BME280;10065;49.632;8.346;2022-11-18T09:08:34;99263.97;;;11.54;87.94
19811;BME280;10065;49.632;8.346;2022-11-18T09:11:05;99254.38;;;11.68;85.62
19811;BME280;10065;49.632;8.346;2022-11-18T09:13:35;99254.72;;;11.80;84.89
19811;BME280;10065;49.632;8.346;2022-11-18T09:16:23;99252.91;;;11.80;85.02
19811;BME280;10065;49.632;8.346;2022-11-18T09:18:55;99262.97;;;11.85;84.75
19811;BME280;10065;49.632;8.346;2022-11-18T09:21:23;99260.88;;;11.95;85.49
19811;BME280;10065;49.632;8.346;2022-11-18T09:23:52;99264.59;;;12.00;85.12
19811;BME280;10065;49.632;8.346;2022-11-18T09:26:21;99265.78;;;12.13;84.01
19811;BME280;10065;49.632;8.346;2022-11-18T09:28:52;99259.53;;;12.20;82.96
19811;BME280;10065;49.632;8.346;2022-11-18T09:31:21;99267.31;;;12.22;82.23
19811;BME280;10065;49.632;8.346;2022-11-18T09:33:49;99269.75;;;12.23;82.51
19811;BME280;10065;49.632;8.346;2022-11-18T09:36:18;99272.41;;;12.23;82.45
19811;BME280;10065;49.632;8.346;2022-11-18T09:38:46;99273.69;;;12.27;82.53
19811;BME280;10065;49.632;8.346;2022-11-18T09:41:42;99280.66;;;12.28;83.11
19811;BME280;10065;49.632;8.346;2022-11-18T09:44:26;99282.31;;;12.29;82.65
19811;BME280;10065;49.632;8.346;2022-11-18T09:47:07;99286.88;;;12.35;82.59
19811;BME280;10065;49.632;8.346;2022-11-18T09:49:41;99282.19;;;12.37;83.03
19811;BME280;10065;49.632;8.346;2022-11-18T09:52:15;99294.09;;;12.41;82.78
19811;BME280;10065;49.632;8.346;2022-11-18T09:54:45;99288.75;;;12.41;83.24
19811;BME280;10065;49.632;8.346;2022-11-18T09:57:14;99295.38;;;12.46;83.28
19811;BME280;10065;49.632;8.346;2022-11-18T09:59:46;99293.97;;;12.50;82.58
19811;BME280;10065;49.632;8.346;2022-11-18T10:02:31;99294.25;;;12.55;82.84
19811;BME280;10065;49.632;8.346;2022-11-18T10:05:11;99309.19;;;12.56;82.70
19811;BME280;10065;49.632;8.346;2022-11-18T10:07:45;99299.63;;;12.61;82.47
19811;BME280;10065;49.632;8.346;2022-11-18T10:10:19;99303.34;;;12.67;82.82
19811;BME280;10065;49.632;8.346;2022-11-18T10:12:51;99312.59;;;12.71;82.50
19811;BME280;10065;49.632;8.346;2022-11-18T10:15:28;99314.13;;;12.80;81.99
19811;BME280;10065;49.632;8.346;2022-11-18T10:18:09;99316.41;;;12.83;81.15
19811;BME280;10065;49.632;8.346;2022-11-18T10:21:07;99319.31;;;12.88;80.88
19811;BME280;10065;49.632;8.346;2022-11-18T10:23:47;99321.84;;;12.96;80.90
19811;BME280;10065;49.632;8.346;2022-11-18T10:26:33;99327.28;;;12.88;80.83
19811;BME280;10065;49.632;8.346;2022-11-18T10:29:01;99323.75;;;12.81;81.73
19811;BME280;10065;49.632;8.346;2022-11-18T10:31:30;99324.75;;;12.80;81.89
19811;BME280;10065;49.632;8.346;2022-11-18T10:33:59;99321.84;;;12.75;82.81
19811;BME280;10065;49.632;8.346;2022-11-18T10:36:29;99326.34;;;12.74;83.21
19811;BME280;10065;49.632;8.346;2022-11-18T10:39:10;99329.06;;;12.81;83.40
19811;BME280;10065;49.632;8.346;2022-11-18T10:41:41;99328.88;;;12.82;83.35
19811;BME280;10065;49.632;8.346;2022-11-18T10:44:26;99332.84;;;12.93;82.50
19811;BME280;10065;49.632;8.346;2022-11-18T10:47:14;99334.78;;;12.99;81.79
19811;BME280;10065;49.632;8.346;2022-11-18T10:49:42;99332.47;;;12.96;81.17
19811;BME280;10065;49.632;8.346;2022-11-18T10:52:11;99334.59;;;13.01;80.41
19811;BME280;10065;49.632;8.346;2022-11-18T10:54:40;99335.41;;;13.01;80.77
19811;BME280;10065;49.632;8.346;2022-11-18T10:57:14;99344.00;;;13.03;81.17
19811;BME280;10065;49.632;8.346;2022-11-18T10:59:49;99338.31;;;13.06;81.37
19811;BME280;10065;49.632;8.346;2022-11-18T11:02:22;99329.13;;;13.09;81.50
19811;BME280;10065;49.632;8.346;2022-11-18T11:04:57;99323.41;;;13.12;80.92
19811;BME280;10065;49.632;8.346;2022-11-18T11:07:27;99331.22;;;13.13;81.08
19811;BME280;10065;49.632;8.346;2022-11-18T11:09:59;99331.50;;;13.18;80.98
19811;BME280;10065;49.632;8.346;2022-11-18T11:12:30;99325.13;;;13.19;81.15
19811;BME280;10065;49.632;8.346;2022-11-18T11:15:02;99321.53;;;13.27;81.43
19811;BME280;10065;49.632;8.346;2022-11-18T11:17:34;99323.59;;;13.32;80.48
19811;BME280;10065;49.632;8.346;2022-11-18T11:20:06;99328.13;;;13.38;79.75
19811;BME280;10065;49.632;8.346;2022-11-18T11:22:37;99319.59;;;13.42;78.95
19811;BME280;10065;49.632;8.346;2022-11-18T11:25:09;99327.75;;;13.41;79.29
19811;BME280;10065;49.632;8.346;2022-11-18T11:27:44;99326.13;;;13.40;79.49
19811;BME280;10065;49.632;8.346;2022-11-18T11:30:36;99327.94;;;13.39;80.07
19811;BME280;10065;49.632;8.346;2022-11-18T11:33:31;99335.94;;;13.39;80.63
19811;BME280;10065;49.632;8.346;2022-11-18T11:36:20;99334.94;;;13.40;80.75
19811;BME280;10065;49.632;8.346;2022-11-18T11:38:57;99343.75;;;13.41;80.90
19811;BME280;10065;49.632;8.346;2022-11-18T11:41:37;99339.53;;;13.53;80.07
19811;BME280;10065;49.632;8.346;2022-11-18T11:44:29;99337.38;;;13.63;79.44
19811;BME280;10065;49.632;8.346;2022-11-18T11:47:12;99346.41;;;13.69;79.38
19811;BME280;10065;49.632;8.346;2022-11-18T11:50:09;99339.03;;;13.71;78.99
19811;BME280;10065;49.632;8.346;2022-11-18T11:52:44;99344.16;;;13.72;78.47
19811;BME280;10065;49.632;8.346;2022-11-18T11:55:18;99340.69;;;13.72;77.99
19811;BME280;10065;49.632;8.346;2022-11-18T11:57:59;99335.94;;;13.67;78.88
19811;BME280;10065;49.632;8.346;2022-11-18T12:00:33;99335.75;;;13.69;78.34
19811;BME280;10065;49.632;8.346;2022-11-18T12:03:14;99340.91;;;13.77;77.83
19811;BME280;10065;49.632;8.346;2022-11-18T12:05:47;99336.63;;;13.82;76.03
19811;BME280;10065;49.632;8.346;2022-11-18T12:08:19;99341.75;;;13.77;75.14
19811;BME280;10065;49.632;8.346;2022-11-18T12:10:52;99348.91;;;13.77;75.77
19811;BME280;10065;49.632;8.346;2022-11-18T12:13:32;99340.91;;;13.77;75.81
19811;BME280;10065;49.632;8.346;2022-11-18T12:16:13;99348.94;;;13.83;74.89
19811;BME280;10065;49.632;8.346;2022-11-18T12:18:46;99356.56;;;13.86;74.46
19811;BME280;10065;49.632;8.346;2022-11-18T12:21:58;99362.09;;;13.91;74.35
19811;BME280;10065;49.632;8.346;2022-11-18T12:24:35;99364.94;;;13.83;72.72
19811;BME280;10065;49.632;8.346;2022-11-18T12:27:12;99363.25;;;13.76;73.58
19811;BME280;10065;49.632;8.346;2022-11-18T12:29:52;99368.13;;;13.72;73.82
19811;BME280;10065;49.632;8.346;2022-11-18T12:32:37;99360.78;;;13.74;74.22
19811;BME280;10065;49.632;8.346;2022-11-18T12:35:23;99356.69;;;13.72;75.55
19811;BME280;10065;49.632;8.346;2022-11-18T12:38:01;99354.19;;;13.70;76.43
19811;BME280;10065;49.632;8.346;2022-11-18T12:40:32;99359.91;;;13.67;77.73
19811;BME280;10065;49.632;8.346;2022-11-18T12:43:00;99366.66;;;13.63;78.17
19811;BME280;10065;49.632;8.346;2022-11-18T12:45:54;99365.16;;;13.54;78.86
19811;BME280;10065;49.632;8.346;2022-11-18T12:48:30;99363.25;;;13.48;79.13
19811;BME280;10065;49.632;8.346;2022-11-18T12:51:00;99366.69;;;13.42;80.64
19811;BME280;10065;49.632;8.346;2022-11-18T12:53:34;99369.31;;;13.35;82.35
19811;BME280;10065;49.632;8.346;2022-11-18T12:56:17;99368.72;;;13.40;82.27
19811;BME280;10065;49.632;8.346;2022-11-18T12:58:49;99371.56;;;13.38;82.90
19811;BME280;10065;49.632;8.346;2022-11-18T13:01:18;99370.00;;;13.44;83.93
19811;BME280;10065;49.632;8.346;2022-11-18T13:03:46;99367.34;;;13.44;84.36
19811;BME280;10065;49.632;8.346;2022-11-18T13:06:22;99379.97;;;13.63;83.84
19811;BME280;10065;49.632;8.346;2022-11-18T13:08:54;99365.94;;;13.82;83.02
19811;BME280;10065;49.632;8.346;2022-11-18T13:11:25;99366.66;;;13.98;82.92
19811;BME280;10065;49.632;8.346;2022-11-18T13:14:15;99367.56;;;14.18;80.25
19811;BME280;10065;49.632;8.346;2022-11-18T13:17:02;99376.59;;;14.17;76.23
19811;BME280;10065;49.632;8.346;2022-11-18T13:19:54;99374.56;;;14.19;74.98
19811;BME280;10065;49.632;8.346;2022-11-18T13:22:23;99384.81;;;14.15;73.98
19811;BME280;10065;49.632;8.346;2022-11-18T13:25:23;99382.72;;;14.11;73.88
19811;BME280;10065;49.632;8.346;2022-11-18T13:27:57;99376.53;;;14.04;73.28
19811;BME280;10065;49.632;8.346;2022-11-18T13:30:29;99377.72;;;13.94;72.31